Hlavní strana
METAR-TAF:

METAR-TAF

Letiště :

Rønne, Dánsko

zeměpisná šířka: 55-04N, zeměpisná délka: 014-45E, výška: 16 m

Aktuální stav počasí

Zpráva byla vytvořena před 18 minutami, v 01:50 UTC
Východojihovýchodní vítr 11 kt
Teplota 6°C
Vlhkost vzduchu 93%
Tlak 1014 hPa
Viditelnost: 7000 m

METAR: EKRN 230150Z AUTO 11011KT 7000 OVC008/// 06/05 Q1014

Čas: 03:08 (02:08 UTC)

Předpověď počasí

Zpráva byla vytvořena před 5 hodinami a 14 minutami, v 20:54 UTC
Předpověď platná od 22 v 20 UTC do 22 v 23 UTC
Jihovýchodní vítr 15 kt
Viditelnost: 8000 m
Oblačno až skoro zataženo ve výšce 800 ft
Dočasný
od 22 v 20 UTC do 22 v 23 UTC
Oblačno až skoro zataženo ve výšce 1500 ft

TAF: EKRN 222054Z 2220/2223 13015KT 8000 BKN008 TEMPO 2220/2223 BKN015

Stav a předpovědi počasí z více než 4 000 letišť (zprávy METAR a TAF).

Červené a žluté tečky na mapě představují dostupné meteorologické stanice.

Když kurzor umístíte na tečku, zobrazí se název stanice.

Pak kliknutím zobrazíte stav a předpověď počasí.

Chcete-li změnit mapu, kliknutím na zelené tlačítko se znaménkem +mapu přiblížíte, kliknutím na zelené tlačítko se znaménkem – mapu oddálíte a kliknutím na zelené šipky přejdete na sousední mapy.


METAR-TAF: